Time,TemperatureF,DewpointF,PressureIn,WindDirection,WindDirectionDegrees,WindSpeedMPH,WindSpeedGustMPH,Humidity,HourlyPrecipIn,Conditions,Clouds,dailyrainin,SoftwareType,DateUTC
2013-02-19 00:14:00,30.8,17.0,29.96,SW,232,0.0,3.0,56,0.00,,,0.00,weatherlink.com 1.10,2013-02-19 07:14:00,
2013-02-19 00:29:00,30.6,16.0,29.95,SSW,206,1.0,5.0,56,0.00,,,0.00,weatherlink.com 1.10,2013-02-19 07:29:00,
2013-02-19 00:44:00,31.0,16.0,29.95,SSE,155,4.0,9.0,55,0.00,,,0.00,weatherlink.com 1.10,2013-02-19 07:44:00,
2013-02-19 00:59:00,31.4,16.0,29.95,SE,145,5.0,8.0,54,0.00,,,0.00,weatherlink.com 1.10,2013-02-19 07:59:00,
2013-02-19 01:14:00,31.3,17.0,29.94,South,171,2.0,4.0,55,0.00,,,0.00,weatherlink.com 1.10,2013-02-19 08:14:00,
2013-02-19 01:29:00,31.1,16.0,29.93,SW,234,0.0,4.0,54,0.00,,,0.00,weatherlink.com 1.10,2013-02-19 08:29:00,
2013-02-19 01:44:00,28.7,15.0,29.93,West,273,6.0,7.0,58,0.00,,,0.00,weatherlink.com 1.10,2013-02-19 08:44:00,
2013-02-19 01:59:00,28.8,17.0,29.92,West,259,0.0,8.0,61,0.00,,,0.00,weatherlink.com 1.10,2013-02-19 08:59:00,
2013-02-19 02:14:00,29.0,17.0,29.91,NW,309,0.0,8.0,60,0.00,,,0.00,weatherlink.com 1.10,2013-02-19 09:14:00,
2013-02-19 02:29:00,29.4,17.0,29.91,SSW,198,0.0,1.0,59,0.00,,,0.00,weatherlink.com 1.10,2013-02-19 09:29:00,
2013-02-19 02:44:00,29.8,17.0,29.91,West,271,3.0,5.0,58,0.00,,,0.00,weatherlink.com 1.10,2013-02-19 09:44:00,
2013-02-19 02:59:00,29.7,17.0,29.91,West,269,2.0,9.0,59,0.00,,,0.00,weatherlink.com 1.10,2013-02-19 09:59:00,
2013-02-19 03:14:00,29.7,16.0,29.90,SW,235,0.0,3.0,56,0.00,,,0.00,weatherlink.com 1.10,2013-02-19 10:14:00,
2013-02-19 03:29:00,29.9,16.0,29.90,WSW,242,0.0,0.0,57,0.00,,,0.00,weatherlink.com 1.10,2013-02-19 10:29:00,
2013-02-19 03:45:00,29.7,16.0,29.90,WSW,242,1.0,4.0,58,0.00,,,0.00,weatherlink.com 1.10,2013-02-19 10:45:00,
2013-02-19 04:00:00,29.1,16.0,29.90,SW,225,0.0,3.0,59,0.00,,,0.00,weatherlink.com 1.10,2013-02-19 11:00:00,
2013-02-19 04:15:00,29.9,17.0,29.88,SSW,206,0.0,3.0,59,0.00,,,0.00,weatherlink.com 1.10,2013-02-19 11:15:00,
2013-02-19 04:30:00,29.0,17.0,29.88,WSW,238,0.0,5.0,61,0.00,,,0.00,weatherlink.com 1.10,2013-02-19 11:30:00,
2013-02-19 04:45:00,29.3,16.0,29.88,WSW,247,0.0,7.0,59,0.00,,,0.00,weatherlink.com 1.10,2013-02-19 11:45:00,
2013-02-19 05:00:00,31.8,16.0,29.88,South,172,5.0,14.0,53,0.00,,,0.00,weatherlink.com 1.10,2013-02-19 12:00:00,
2013-02-19 05:15:00,32.7,16.0,29.87,SSE,160,6.0,21.0,51,0.00,,,0.00,weatherlink.com 1.10,2013-02-19 12:15:00,
2013-02-19 05:30:00,31.5,16.0,29.88,WSW,246,5.0,6.0,54,0.00,,,0.00,weatherlink.com 1.10,2013-02-19 12:30:00,
2013-02-19 05:45:00,29.8,17.0,29.87,WSW,250,2.0,10.0,58,0.00,,,0.00,weatherlink.com 1.10,2013-02-19 12:45:00,
2013-02-19 06:00:00,30.7,17.0,29.87,ESE,116,0.0,11.0,56,0.00,,,0.00,weatherlink.com 1.10,2013-02-19 13:00:00,
2013-02-19 06:15:00,30.3,16.0,29.86,East,82,0.0,4.0,56,0.00,,,0.00,weatherlink.com 1.10,2013-02-19 13:15:00,
2013-02-19 06:30:00,30.7,16.0,29.86,NW,307,2.0,5.0,55,0.00,,,0.00,weatherlink.com 1.10,2013-02-19 13:30:00,
2013-02-19 06:45:00,30.7,16.0,29.86,SSE,165,3.0,7.0,55,0.00,,,0.00,weatherlink.com 1.10,2013-02-19 13:45:00,
2013-02-19 07:00:00,30.6,16.0,29.86,South,189,0.0,6.0,55,0.00,,,0.00,weatherlink.com 1.10,2013-02-19 14:00:00,
2013-02-19 07:15:00,30.1,16.0,29.86,WSW,239,3.0,7.0,55,0.00,,,0.00,weatherlink.com 1.10,2013-02-19 14:15:00,
2013-02-19 07:30:00,29.9,16.0,29.86,WSW,250,2.0,6.0,57,0.00,,,0.00,weatherlink.com 1.10,2013-02-19 14:30:00,
2013-02-19 07:45:00,28.2,17.0,29.86,WSW,246,6.0,8.0,62,0.00,,,0.00,weatherlink.com 1.10,2013-02-19 14:45:00,
2013-02-19 08:00:00,28.3,17.0,29.86,WSW,249,0.0,8.0,64,0.00,,,0.00,weatherlink.com 1.10,2013-02-19 15:00:00,
2013-02-19 08:15:00,29.3,18.0,29.86,WSW,250,6.0,12.0,62,0.00,,,0.00,weatherlink.com 1.10,2013-02-19 15:15:00,
2013-02-19 08:30:00,30.8,16.0,29.86,SE,146,8.0,13.0,54,0.00,,,0.00,weatherlink.com 1.10,2013-02-19 15:30:00,
2013-02-19 08:45:00,32.9,16.0,29.86,SE,128,6.0,16.0,51,0.00,,,0.00,weatherlink.com 1.10,2013-02-19 15:45:00,
2013-02-19 09:00:00,33.2,16.0,29.86,SE,146,6.0,13.0,49,0.00,,,0.00,weatherlink.com 1.10,2013-02-19 16:00:00,
2013-02-19 09:15:00,33.9,16.0,29.86,West,260,1.0,8.0,49,0.00,,,0.00,weatherlink.com 1.10,2013-02-19 16:15:00,
2013-02-19 09:30:00,32.5,17.0,29.86,West,269,4.0,11.0,53,0.00,,,0.00,weatherlink.com 1.10,2013-02-19 16:30:00,
2013-02-19 09:45:00,31.6,18.0,29.86,West,280,6.0,13.0,57,0.00,,,0.00,weatherlink.com 1.10,2013-02-19 16:45:00,
2013-02-19 10:00:00,32.0,18.0,29.86,West,273,3.0,9.0,57,0.00,,,0.00,weatherlink.com 1.10,2013-02-19 17:00:00,
2013-02-19 10:15:00,34.0,20.0,29.86,South,171,1.0,3.0,57,0.00,,,0.00,weatherlink.com 1.10,2013-02-19 17:15:00,
2013-02-19 10:30:00,35.3,16.0,29.78,SSE,168,4.0,14.0,46,0.00,,,0.00,weatherlink.com 1.10,2013-02-19 17:30:00,
2013-02-19 10:45:00,34.8,16.0,29.77,SE,141,6.0,11.0,46,0.00,,,0.00,weatherlink.com 1.10,2013-02-19 17:45:00,
2013-02-19 11:00:00,34.7,18.0,29.77,SSE,153,2.0,9.0,50,0.00,,,0.00,weatherlink.com 1.10,2013-02-19 18:00:00,
2013-02-19 11:15:00,35.3,18.0,29.77,SW,231,1.0,7.0,49,0.00,,,0.00,weatherlink.com 1.10,2013-02-19 18:15:00,
2013-02-19 11:30:00,36.4,18.0,29.77,WSW,253,0.0,5.0,47,0.00,,,0.00,weatherlink.com 1.10,2013-02-19 18:30:00,
2013-02-19 11:45:00,37.4,17.0,29.76,SW,217,0.0,2.0,44,0.00,,,0.00,weatherlink.com 1.10,2013-02-19 18:45:00,
2013-02-19 12:00:00,37.5,18.0,29.76,SE,131,2.0,9.0,46,0.00,,,0.00,weatherlink.com 1.10,2013-02-19 19:00:00,
2013-02-19 12:15:00,37.7,17.0,29.76,SSE,153,3.0,10.0,43,0.00,,,0.00,weatherlink.com 1.10,2013-02-19 19:15:00,
2013-02-19 12:30:00,37.7,14.0,29.75,SSE,149,6.0,16.0,38,0.00,,,0.00,weatherlink.com 1.10,2013-02-19 19:30:00,
2013-02-19 12:45:00,38.3,15.0,29.74,South,181,6.0,12.0,39,0.00,,,0.00,weatherlink.com 1.10,2013-02-19 19:45:00,
2013-02-19 13:00:00,38.0,16.0,29.73,ESE,106,2.0,17.0,40,0.00,,,0.00,weatherlink.com 1.10,2013-02-19 20:00:00,
2013-02-19 13:15:00,37.9,16.0,29.73,SSE,150,9.0,15.0,41,0.00,,,0.00,weatherlink.com 1.10,2013-02-19 20:15:00,
2013-02-19 13:31:00,37.2,16.0,29.73,SSE,159,12.0,18.0,43,0.00,,,0.00,weatherlink.com 1.10,2013-02-19 20:31:00,
2013-02-19 13:45:00,37.1,16.0,29.73,SE,146,14.0,17.0,43,0.00,,,0.00,weatherlink.com 1.10,2013-02-19 20:45:00,
2013-02-19 14:01:00,36.9,18.0,29.73,SSE,160,13.0,19.0,47,0.00,,,0.00,weatherlink.com 1.10,2013-02-19 21:01:00,
2013-02-19 14:15:00,36.3,21.0,29.73,SE,134,7.0,16.0,54,0.00,,,0.00,weatherlink.com 1.10,2013-02-19 21:15:00,
2013-02-19 14:30:00,35.5,22.0,29.73,SE,136,11.0,21.0,59,0.00,,,0.00,weatherlink.com 1.10,2013-02-19 21:30:00,
2013-02-19 14:46:00,35.6,23.0,29.72,SE,138,6.0,17.0,61,0.00,,,0.00,weatherlink.com 1.10,2013-02-19 21:46:00,
2013-02-19 15:01:00,36.2,23.0,29.73,SSE,159,6.0,10.0,60,0.00,,,0.00,weatherlink.com 1.10,2013-02-19 22:01:00,
2013-02-19 15:16:00,37.8,24.0,29.73,SE,140,1.0,8.0,59,0.00,,,0.00,weatherlink.com 1.10,2013-02-19 22:16:00,
2013-02-19 15:31:00,39.0,25.0,29.73,SW,214,0.0,4.0,57,0.00,,,0.00,weatherlink.com 1.10,2013-02-19 22:31:00,
2013-02-19 15:46:00,38.4,24.0,29.73,SSW,213,0.0,1.0,57,0.00,,,0.00,weatherlink.com 1.10,2013-02-19 22:46:00,
2013-02-19 16:01:00,40.5,24.0,29.73,SW,214,0.0,0.0,52,0.00,,,0.00,weatherlink.com 1.10,2013-02-19 23:01:00,
2013-02-19 16:16:00,41.6,25.0,29.73,SW,214,0.0,0.0,51,0.00,,,0.00,weatherlink.com 1.10,2013-02-19 23:16:00,
2013-02-19 16:31:00,36.3,23.0,29.73,North,360,5.0,8.0,60,0.00,,,0.00,weatherlink.com 1.10,2013-02-19 23:31:00,
2013-02-19 16:46:00,33.9,23.0,29.73,NNE,30,4.0,8.0,65,0.00,,,0.00,weatherlink.com 1.10,2013-02-19 23:46:00,
2013-02-19 17:01:00,32.9,23.0,29.73,North,9,6.0,9.0,67,0.00,,,0.00,weatherlink.com 1.10,2013-02-20 00:01:00,
2013-02-19 17:16:00,32.0,22.0,29.73,NNE,17,5.0,10.0,67,0.00,,,0.00,weatherlink.com 1.10,2013-02-20 00:16:00,
2013-02-19 17:31:00,31.0,22.0,29.73,North,9,8.0,10.0,68,0.00,,,0.00,weatherlink.com 1.10,2013-02-20 00:31:00,
2013-02-19 17:46:00,29.7,21.0,29.74,North,5,8.0,11.0,69,0.00,,,0.00,weatherlink.com 1.10,2013-02-20 00:46:00,
2013-02-19 18:01:00,29.1,21.0,29.75,NW,323,7.0,9.0,71,0.00,,,0.00,weatherlink.com 1.10,2013-02-20 01:01:00,
2013-02-19 18:16:00,28.4,20.0,29.76,NNW,338,6.0,10.0,72,0.00,,,0.00,weatherlink.com 1.10,2013-02-20 01:16:00,
2013-02-19 18:31:00,27.6,20.0,29.77,NNE,23,7.0,10.0,74,0.00,,,0.00,weatherlink.com 1.10,2013-02-20 01:31:00,
2013-02-19 18:46:00,26.9,20.0,29.77,NNE,13,6.0,10.0,75,0.00,,,0.00,weatherlink.com 1.10,2013-02-20 01:46:00,
2013-02-19 19:01:00,26.2,20.0,29.78,North,355,7.0,9.0,76,0.00,,,0.00,weatherlink.com 1.10,2013-02-20 02:01:00,
2013-02-19 19:16:00,25.5,19.0,29.79,North,355,6.0,9.0,77,0.01,,,0.01,weatherlink.com 1.10,2013-02-20 02:16:00,
2013-02-19 19:31:00,25.3,19.0,29.80,NNW,348,5.0,8.0,78,0.01,,,0.01,weatherlink.com 1.10,2013-02-20 02:31:00,
2013-02-19 19:46:00,25.5,19.0,29.81,North,360,3.0,6.0,77,0.01,,,0.01,weatherlink.com 1.10,2013-02-20 02:46:00,
2013-02-19 20:01:00,25.3,19.0,29.81,NNW,344,3.0,6.0,77,0.01,,,0.01,weatherlink.com 1.10,2013-02-20 03:01:00,
2013-02-19 20:16:00,24.6,19.0,29.82,North,9,7.0,7.0,78,0.00,,,0.01,weatherlink.com 1.10,2013-02-20 03:16:00,
2013-02-19 20:31:00,24.1,18.0,29.82,NW,306,2.0,6.0,78,0.00,,,0.01,weatherlink.com 1.10,2013-02-20 03:31:00,
2013-02-19 20:46:00,22.9,18.0,29.83,WNW,298,2.0,5.0,80,0.00,,,0.01,weatherlink.com 1.10,2013-02-20 03:46:00,
2013-02-19 21:01:00,22.4,17.0,29.83,NW,325,6.0,7.0,81,0.00,,,0.01,weatherlink.com 1.10,2013-02-20 04:01:00,
2013-02-19 21:16:00,20.6,16.0,29.84,NW,306,3.0,5.0,81,0.00,,,0.01,weatherlink.com 1.10,2013-02-20 04:16:00,
2013-02-19 21:31:00,20.3,16.0,29.84,WNW,300,2.0,4.0,83,0.00,,,0.01,weatherlink.com 1.10,2013-02-20 04:31:00,
2013-02-19 21:46:00,20.2,16.0,29.84,WNW,296,3.0,4.0,84,0.00,,,0.01,weatherlink.com 1.10,2013-02-20 04:46:00,
2013-02-19 22:01:00,20.6,17.0,29.85,NW,313,3.0,5.0,85,0.00,,,0.01,weatherlink.com 1.10,2013-02-20 05:01:00,
2013-02-19 22:16:00,20.4,16.0,29.85,WNW,292,3.0,4.0,82,0.00,,,0.01,weatherlink.com 1.10,2013-02-20 05:16:00,
2013-02-19 22:31:00,19.4,15.0,29.85,WNW,302,2.0,4.0,84,0.00,,,0.01,weatherlink.com 1.10,2013-02-20 05:31:00,
2013-02-19 22:46:00,19.2,15.0,29.86,WNW,298,2.0,5.0,84,0.00,,,0.01,weatherlink.com 1.10,2013-02-20 05:46:00,
2013-02-19 23:02:00,18.6,15.0,29.86,NW,304,2.0,3.0,85,0.00,,,0.01,weatherlink.com 1.10,2013-02-20 06:02:00,
2013-02-19 23:17:00,19.3,15.0,29.86,NW,305,4.0,5.0,84,0.00,,,0.01,weatherlink.com 1.10,2013-02-20 06:17:00,
2013-02-19 23:32:00,19.3,15.0,29.87,WNW,294,3.0,4.0,84,0.00,,,0.01,weatherlink.com 1.10,2013-02-20 06:32:00,
2013-02-19 23:47:00,18.8,15.0,29.88,WNW,294,2.0,4.0,84,0.00,,,0.01,weatherlink.com 1.10,2013-02-20 06:47:00,